Deddington, United Kingdom
Current Conditions -  °F | °C
As of 6:20 PM on Monday 22 Dec 2014 (Local Time) from EGTK Reporting Station
Few Clouds Few Clouds  
Wind Chill: 52°   Ceiling: Unl
Heat Index: 52°   Visibility: 6mi
Dew Point: 48°   Wind: 28mph
Humidity: 88%   Direction: 240°WSW
Pressure: 29.97"   Gusts: NA
Location:  51.98°N, 1.32°W
Report Text: EGTK 221820Z 24024KT 9999 FEW022 11/09 Q1015
Loading
Personal Weather Stations






























Interactive Weather Map New forecast layout! Learn more

10-Day Weather Forecast

Advertisements
Track Severe Weather on mobile